Terminal Aerodrome Forecast
Issued by NWS

Home | Current Version | Previous Version | Text Only | Print | Product List | Glossary On
Versions: 1 2 3 4 5 6 7 8 9 10 11 12 13
000
FTUS45 KVEF 211100
TAFBIH
TAF
KBIH 211121Z 2112/2212 33007KT P6SM SKC
     FM211900 16012G20KT P6SM SCT110
     FM220300 14012KT P6SM FEW110
     FM220800 33006KT P6SM SKC=

USA.gov is the U.S. government's official web portal to all federal, state and local government web resources and services.